Overview Statistics Trail Chart Weather Telemetry Raw packets
 

This is the latest recevied weather packets stored in our database for station/object NO9B. If no packets are shown the sender has not sent any weather packets the latest 10 day(s).

<< 96 97 98 99 100 101 102 >>
Time Temp. Humidity Pressure Rain* Wind** Luminosity Snow
1787939431 27.78° C 55% 1021.9 hPa 0 mm - 98 W/m² -
1787939127 28.33° C 51% 1021.7 hPa 0 mm - 664 W/m² -
1787938826 27.78° C 51% 1022.1 hPa 0 mm - 675 W/m² -
1787938521 26.67° C 56% 1021.8 hPa 0 mm - 638 W/m² -
1787938217 27.78° C 52% 1021.8 hPa 0 mm - 95 W/m² -
1787937911 26.67° C 56% 1022.1 hPa 0 mm - 633 W/m² -
1787937607 26.67° C 56% 1021.9 hPa 0 mm - 216 W/m² -
1787937303 27.22° C 56% 1021.8 hPa 0 mm - 74 W/m² -
1787936999 27.22° C 57% 1022.1 hPa 0 mm - 259 W/m² -
1787936698 26.67° C 59% 1022.1 hPa 0 mm - 589 W/m² -
1787936397 27.22° C 57% 1022.2 hPa 0 mm - 82 W/m² -
1787936093 26.67° C 62% 1022.4 hPa 0 mm - 552 W/m² -
1787935788 26.67° C 61% 1022.2 hPa 0 mm - 541 W/m² -
1787935484 26.67° C 59% 1022.4 hPa 0 mm - 534 W/m² -
1787935180 26.11° C 63% 1022.4 hPa 0 mm - 529 W/m² -
1787934875 26.11° C 62% 1022.6 hPa 0 mm - 521 W/m² -
1787934574 26.11° C 63% 1022.4 hPa 0 mm - 115 W/m² -
1787934269 26.11° C 62% 1022.4 hPa 0 mm - 52 W/m² -
1787933968 26.11° C 64% 1022.6 hPa 0 mm - 50 W/m² -
1787933668 26.11° C 62% 1022.7 hPa 0 mm - 49 W/m² -
1787933363 25.56° C 65% 1022.5 hPa 0 mm - 48 W/m² -
1787933063 25.56° C 66% 1022.6 hPa 0 mm - 46 W/m² -
1787932761 25.56° C 64% 1022.4 hPa 0 mm - 45 W/m² -
1787932461 25° C 63% 1022.6 hPa 0 mm - 44 W/m² -
1787932157 25° C 64% 1022.5 hPa 0 mm - 43 W/m² -

* Rain latest hour (hover to see other rain measurements)
** Current wind speed in m/s (hover to see current wind gust speed)